Aérodrome :
LOGIN :

S'inscrire | Disclaimer

   EN    FR    IT 

 










Légende :    VFR   VFR Marginal   IFR   IFR Intensif   IFR Très Intensif
Visi : 
Plafond : 
>= 8 km
>= 3000ft
5 à 8 km
1000 à 3000 ft
1500m à 5 km
500 à 1000 ft
800 à 1500m
200 à 500 ft
< 800m
< 200 ft
Symboles :   Orages  Brouillard  Fortes neiges  Fortes précipitations  Vent > 20 kt
SIGMETs :   Divers  Orages  Givrage  Turbulence  Onde Orograph.  Cendres Volcan.






- Altitude de l'aérodrome : 41 ft
- Code IATA : PFO


LCPH - Pafos Int.

DERNIER METAR :
  • 011900Z 09007KT CAVOK 19/13 Q1008

METARs EXPIRÉS :
  • 011830Z 10007KT CAVOK 19/13 Q1008
  • 011800Z VRB02KT CAVOK 20/14 Q1009
  • 011730Z 30003KT CAVOK 21/13 Q1009
  • 011700Z 27009KT CAVOK 21/14 Q1010
  • 011630Z 28004KT CAVOK 22/15 Q1009

TAF TAF LCPH
Valide du 01 à 18h jusqu'au 02 à 18h UTC


011730Z 0118/0218 06007KT 9999 FEW020
BECMG 0207/0211 28016KT



MET'MAP, la Météo Aéronautique d'un coup d'oeil ! - Copyright ORBIFLY Décembre 2007 - Disclaimer

ORBIFLY MET'MAP TEAM :

Programmation & Développement : Alexandra Zaïnal
Sur une idée originale de : Baudouin d'Aumeries
Assistance à la programmation : Marc-Olivier Méhu
Soutien technique & logistique : Manuel Goepfert

Contact : metmap@orbifly.com




SOURCES & CREDITS :

   NOAA